Time;durP1;ratioP1;P1;durP2;ratioP2;P2;SDS_P1;SDS_P2;PMS_P1;PMS_P2;Temp;Humidity;BMP_temperature;BMP_pressure;BME280_temperature;BME280_humidity;BME280_pressure;Samples;Min_cycle;Max_cycle;Signal;HPM_P1;HPM_P2
2023/12/31 00:00:18;;;;;;;6.20;3.22;;;;;;;10.87;90.26;99748.75;5050784;28;20045;-59
2023/12/31 00:02:46;;;;;;;6.47;3.25;;;;;;;10.88;90.05;99755.06;5050207;28;20053;-59
2023/12/31 00:05:15;;;;;;;5.78;3.10;;;;;;;10.70;90.63;99745.34;5050991;28;20431;-60
2023/12/31 00:07:42;;;;;;;6.68;3.25;;;;;;;10.92;90.14;99729.25;5049144;28;20060;-59
2023/12/31 00:10:13;;;;;;;6.88;3.67;;;;;;;10.85;89.96;99717.97;5049966;28;20055;-57
2023/12/31 00:12:40;;;;;;;11.10;4.18;;;;;;;10.74;90.27;99704.97;5051701;28;20436;-58
2023/12/31 00:15:08;;;;;;;7.47;3.95;;;;;;;10.70;91.12;99723.31;5050300;28;20061;-59
2023/12/31 00:17:35;;;;;;;7.07;3.17;;;;;;;10.79;90.86;99693.72;5051050;28;20059;-57
2023/12/31 00:20:03;;;;;;;6.95;3.45;;;;;;;10.75;90.57;99707.38;5049629;28;20447;-60
2023/12/31 00:22:31;;;;;;;6.28;3.65;;;;;;;10.76;90.61;99691.63;5051475;28;20119;-58
2023/12/31 00:24:58;;;;;;;7.38;4.00;;;;;;;10.55;91.96;99686.16;5050522;28;20153;-60
2023/12/31 00:27:26;;;;;;;7.43;4.20;;;;;;;10.73;92.03;99676.63;5050573;28;20055;-58
2023/12/31 00:29:54;;;;;;;9.95;4.50;;;;;;;10.94;90.65;99662.78;5074827;28;20049;-59
2023/12/31 00:32:21;;;;;;;9.10;3.70;;;;;;;10.79;90.93;99664.22;5068191;28;20052;-60
2023/12/31 00:34:49;;;;;;;7.50;3.55;;;;;;;10.82;90.80;99652.53;5016960;28;20053;-56
2023/12/31 00:37:16;;;;;;;7.93;3.92;;;;;;;10.83;91.41;99656.06;5034348;28;20758;-57
2023/12/31 00:39:44;;;;;;;6.63;3.47;;;;;;;10.73;91.33;99667.53;5049072;28;20799;-57
2023/12/31 00:42:12;;;;;;;10.85;5.28;;;;;;;10.83;91.38;99651.38;5034397;28;20500;-63
2023/12/31 00:44:39;;;;;;;8.75;4.68;;;;;;;10.91;91.11;99636.69;5040749;28;20057;-63
2023/12/31 00:47:06;;;;;;;6.78;3.53;;;;;;;10.73;91.94;99640.00;5055266;28;20056;-64
2023/12/31 00:49:34;;;;;;;7.03;4.43;;;;;;;10.71;92.30;99617.50;5054060;28;20098;-63
2023/12/31 00:52:02;;;;;;;8.20;3.80;;;;;;;10.83;92.33;99626.59;5053620;28;20049;-63
2023/12/31 00:54:30;;;;;;;6.85;4.00;;;;;;;10.88;92.00;99626.38;5055104;28;20152;-63
2023/12/31 00:56:58;;;;;;;7.32;3.72;;;;;;;10.84;92.13;99619.13;5055528;28;20463;-64
2023/12/31 00:59:28;;;;;;;7.95;3.97;;;;;;;10.83;92.15;99612.81;5051322;28;20057;-65
2023/12/31 01:01:56;;;;;;;5.85;3.50;;;;;;;10.88;92.34;99628.34;5052983;28;20053;-64
2023/12/31 01:04:27;;;;;;;6.75;3.67;;;;;;;11.02;91.72;99607.56;5054207;28;20519;-63
2023/12/31 01:06:55;;;;;;;8.32;4.10;;;;;;;11.07;91.60;99595.53;5061002;28;20061;-64
2023/12/31 01:09:22;;;;;;;5.90;3.60;;;;;;;11.03;90.78;99583.56;5067441;28;20132;-64
2023/12/31 01:11:50;;;;;;;6.97;3.95;;;;;;;10.97;90.85;99571.97;5054788;28;20546;-64
2023/12/31 01:14:18;;;;;;;6.38;3.85;;;;;;;10.99;91.21;99579.88;5038373;28;20060;-63
2023/12/31 01:16:46;;;;;;;7.72;4.47;;;;;;;11.07;91.43;99554.19;5034683;28;20469;-63
2023/12/31 01:19:16;;;;;;;6.25;3.97;;;;;;;10.86;91.58;99559.78;5033048;28;20065;-62
2023/12/31 01:21:43;;;;;;;7.13;3.87;;;;;;;10.95;91.56;99559.66;5061437;28;20076;-63
2023/12/31 01:24:11;;;;;;;6.03;3.50;;;;;;;11.02;91.03;99557.97;5067713;28;20048;-63
2023/12/31 01:26:40;;;;;;;7.03;3.83;;;;;;;11.18;90.56;99544.28;5052645;28;20064;-63
2023/12/31 01:29:08;;;;;;;7.53;3.88;;;;;;;11.16;89.81;99528.09;5052613;28;20049;-64
2023/12/31 01:31:35;;;;;;;7.10;3.63;;;;;;;11.07;89.97;99534.91;5053144;28;20060;-64
2023/12/31 01:34:02;;;;;;;7.07;4.20;;;;;;;11.22;89.00;99539.69;5053345;28;20052;-63
2023/12/31 01:36:30;;;;;;;6.30;3.60;;;;;;;11.13;89.45;99508.69;5035947;28;20079;-63
2023/12/31 01:38:57;;;;;;;6.25;4.00;;;;;;;11.14;89.08;99502.84;5054120;28;20056;-63
2023/12/31 01:41:24;;;;;;;6.85;4.00;;;;;;;11.07;88.92;99483.31;5052352;28;20063;-64
2023/12/31 01:44:01;;;;;;;6.40;4.00;;;;;;;10.84;90.41;99484.16;5052700;28;20049;-62
2023/12/31 01:46:30;;;;;;;7.00;3.60;;;;;;;10.86;90.99;99484.63;5034065;28;20049;-63
2023/12/31 01:48:59;;;;;;;6.55;3.58;;;;;;;11.07;90.52;99496.31;5033137;28;20049;-63
2023/12/31 01:51:27;;;;;;;7.38;3.70;;;;;;;11.02;90.25;99489.06;5042804;28;20053;-63
2023/12/31 01:53:57;;;;;;;7.57;4.00;;;;;;;11.03;89.68;99478.88;5032497;28;20053;-63
2023/12/31 01:56:25;;;;;;;7.35;3.70;;;;;;;10.85;89.76;99483.81;5046504;28;20057;-63
2023/12/31 01:58:53;;;;;;;6.15;3.50;;;;;;;10.95;90.01;99485.28;5043634;28;20063;-64
2023/12/31 02:01:22;;;;;;;5.60;3.30;;;;;;;11.00;89.29;99466.56;5058412;28;20072;-63
2023/12/31 02:03:50;;;;;;;7.53;3.90;;;;;;;10.94;89.39;99445.94;5052643;28;20453;-63
2023/12/31 02:06:18;;;;;;;6.70;3.53;;;;;;;10.99;88.93;99442.94;5041839;28;20162;-63
2023/12/31 02:08:45;;;;;;;8.00;3.90;;;;;;;10.94;89.41;99445.13;5057160;28;20045;-63
2023/12/31 02:11:14;;;;;;;6.32;3.97;;;;;;;10.99;89.18;99436.63;5053097;28;20057;-63
2023/12/31 02:13:44;;;;;;;6.78;3.63;;;;;;;11.11;88.83;99420.88;5052056;28;20045;-64
2023/12/31 02:16:14;;;;;;;6.85;4.00;;;;;;;10.93;88.90;99438.81;5052214;28;20045;-63
2023/12/31 02:18:42;;;;;;;7.45;3.78;;;;;;;10.99;88.43;99429.16;5053091;28;20068;-63
2023/12/31 02:21:12;;;;;;;7.30;3.50;;;;;;;10.88;88.98;99430.78;5043729;28;20063;-63
2023/12/31 02:23:40;;;;;;;6.43;3.50;;;;;;;10.82;89.76;99407.38;5069067;28;20053;-64
2023/12/31 02:26:08;;;;;;;6.90;3.10;;;;;;;10.64;90.40;99378.47;5043258;28;20056;-63
2023/12/31 02:28:36;;;;;;;6.22;3.70;;;;;;;10.87;90.62;99374.09;5033317;28;20080;-63
2023/12/31 02:31:04;;;;;;;6.97;3.53;;;;;;;10.93;89.13;99385.69;5033233;28;20556;-63
2023/12/31 02:33:32;;;;;;;6.72;3.60;;;;;;;10.80;89.25;99392.34;5033551;28;20045;-64
2023/12/31 02:35:59;;;;;;;8.43;3.50;;;;;;;10.90;89.18;99398.19;5015661;28;20042;-62
2023/12/31 02:38:27;;;;;;;6.85;3.85;;;;;;;10.85;89.33;99376.38;5032742;28;20057;-62
2023/12/31 02:40:54;;;;;;;6.55;3.20;;;;;;;11.03;87.92;99363.16;5032057;28;20057;-63
2023/12/31 02:43:22;;;;;;;6.40;3.35;;;;;;;10.93;88.03;99372.69;5048504;28;20488;-63
2023/12/31 02:45:49;;;;;;;5.53;3.28;;;;;;;11.04;87.72;99373.81;5050165;28;20531;-63
2023/12/31 02:48:17;;;;;;;6.13;3.30;;;;;;;10.91;88.20;99376.94;5018195;28;20072;-62
2023/12/31 02:50:45;;;;;;;6.95;3.20;;;;;;;10.98;88.35;99366.94;5051381;28;20056;-63
2023/12/31 02:53:12;;;;;;;5.72;3.40;;;;;;;11.08;87.78;99379.44;5052544;28;20411;-63
2023/12/31 02:55:39;;;;;;;7.68;3.40;;;;;;;11.10;87.23;99391.72;5053337;28;20060;-63
2023/12/31 02:58:07;;;;;;;7.32;3.40;;;;;;;11.14;87.32;99367.81;5053119;28;20049;-63
2023/12/31 03:00:34;;;;;;;5.85;2.90;;;;;;;11.40;86.42;99366.56;5050195;28;20060;-64
2023/12/31 03:03:01;;;;;;;5.15;2.78;;;;;;;11.50;84.66;99341.25;5052391;28;20052;-63
2023/12/31 03:05:29;;;;;;;5.25;2.90;;;;;;;11.42;84.02;99345.75;5052498;28;20040;-63
2023/12/31 03:07:56;;;;;;;4.53;2.50;;;;;;;11.21;84.09;99361.69;5067246;28;20063;-64
2023/12/31 03:10:23;;;;;;;4.88;2.67;;;;;;;11.39;84.07;99349.22;5055712;28;20071;-63
2023/12/31 03:12:51;;;;;;;5.07;2.60;;;;;;;11.42;84.05;99345.75;5051121;28;20064;-63
2023/12/31 03:15:19;;;;;;;5.57;2.70;;;;;;;11.52;83.48;99330.66;5052281;28;20049;-64
2023/12/31 03:17:46;;;;;;;4.63;2.28;;;;;;;11.46;83.72;99334.81;5052117;28;20714;-63
2023/12/31 03:20:14;;;;;;;4.60;2.70;;;;;;;11.67;83.82;99318.88;5050679;28;20052;-63
2023/12/31 03:22:41;;;;;;;6.00;2.33;;;;;;;11.76;82.92;99294.69;5051339;28;20056;-64
2023/12/31 03:25:10;;;;;;;6.63;2.40;;;;;;;11.60;83.23;99305.69;5050197;28;20064;-63
2023/12/31 03:27:37;;;;;;;4.88;2.30;;;;;;;11.59;83.39;99300.50;5050128;28;20099;-63
2023/12/31 03:30:06;;;;;;;3.88;2.45;;;;;;;11.72;83.73;99278.03;5051873;28;20404;-63
2023/12/31 03:32:34;;;;;;;5.93;2.40;;;;;;;11.68;83.62;99265.31;5050896;28;20063;-64
2023/12/31 03:35:02;;;;;;;5.22;2.40;;;;;;;11.61;83.57;99270.63;5051096;28;20071;-64
2023/12/31 03:37:30;;;;;;;4.43;2.38;;;;;;;11.79;83.40;99266.38;5017270;28;20053;-63
2023/12/31 03:39:57;;;;;;;5.30;2.70;;;;;;;11.92;81.87;99259.63;5037919;28;20064;-62
2023/12/31 03:42:24;;;;;;;3.90;2.20;;;;;;;11.80;82.49;99252.22;5032378;28;20045;-58
2023/12/31 03:44:52;;;;;;;8.10;2.63;;;;;;;11.72;81.90;99246.88;5040820;28;20515;-60
2023/12/31 03:47:19;;;;;;;4.25;2.10;;;;;;;11.87;82.27;99257.13;5016764;28;20439;-58
2023/12/31 03:49:46;;;;;;;3.88;2.17;;;;;;;11.94;81.78;99263.59;5051892;28;20049;-58
2023/12/31 03:52:14;;;;;;;4.18;2.08;;;;;;;12.04;82.21;99254.81;5052007;28;20064;-60
2023/12/31 03:54:41;;;;;;;4.28;2.20;;;;;;;12.06;83.23;99252.50;5051154;28;20060;-58
2023/12/31 03:57:08;;;;;;;4.50;2.30;;;;;;;12.09;84.25;99249.00;5051898;28;20052;-59
2023/12/31 03:59:36;;;;;;;5.95;2.50;;;;;;;12.13;84.52;99260.13;5050309;28;20064;-59
2023/12/31 04:02:03;;;;;;;5.60;2.25;;;;;;;11.99;85.21;99244.03;5034097;28;20486;-60
2023/12/31 04:04:31;;;;;;;7.93;2.50;;;;;;;12.13;84.85;99247.09;5033126;28;20283;-57
2023/12/31 04:06:58;;;;;;;5.55;2.53;;;;;;;11.99;85.13;99255.09;5058234;28;20052;-59
2023/12/31 04:09:26;;;;;;;4.15;2.28;;;;;;;12.04;86.03;99262.28;5053188;28;20059;-61
2023/12/31 04:11:53;;;;;;;3.38;1.85;;;;;;;12.07;86.83;99275.34;5049856;28;20063;-59
2023/12/31 04:14:20;;;;;;;4.78;2.30;;;;;;;12.02;86.57;99272.88;5051227;28;20049;-58
2023/12/31 04:16:48;;;;;;;5.00;2.20;;;;;;;12.06;86.87;99273.75;5049848;28;20148;-59
2023/12/31 04:19:16;;;;;;;4.35;2.17;;;;;;;12.07;87.77;99256.84;5049590;28;20729;-59
2023/12/31 04:21:43;;;;;;;5.50;2.28;;;;;;;11.96;87.48;99246.72;5042336;28;20053;-56
2023/12/31 04:24:10;;;;;;;3.70;2.10;;;;;;;12.02;87.23;99209.41;5037444;28;20068;-55
2023/12/31 04:26:42;;;;;;;4.13;1.70;;;;;;;11.82;87.48;99193.97;5050588;28;20649;-60
2023/12/31 04:29:10;;;;;;;3.50;1.80;;;;;;;11.64;87.72;99201.81;5046879;28;20120;-59
2023/12/31 04:31:45;;;;;;;2.15;1.30;;;;;;;11.68;87.44;99210.16;5030670;28;20505;-58
2023/12/31 04:34:16;;;;;;;6.13;1.70;;;;;;;11.72;86.26;99220.13;5030744;28;20064;-60
2023/12/31 04:36:44;;;;;;;5.30;1.60;;;;;;;11.35;87.08;99219.56;5031860;28;20072;-58
2023/12/31 04:39:12;;;;;;;3.70;1.40;;;;;;;11.44;87.11;99219.38;5046843;28;20049;-57
2023/12/31 04:41:39;;;;;;;4.43;2.25;;;;;;;11.60;86.24;99217.44;5032800;28;20083;-56
2023/12/31 04:44:07;;;;;;;5.20;1.85;;;;;;;11.65;84.52;99217.19;5050536;28;20045;-57
2023/12/31 04:46:34;;;;;;;5.07;1.20;;;;;;;11.64;85.51;99206.47;5051894;28;20147;-59
2023/12/31 04:49:02;;;;;;;2.50;1.15;;;;;;;11.35;85.12;99211.28;5032090;28;20060;-57
2023/12/31 04:51:30;;;;;;;2.88;1.10;;;;;;;11.52;85.34;99212.09;5049868;28;20052;-58
2023/12/31 04:53:57;;;;;;;4.07;1.15;;;;;;;11.30;84.67;99222.56;5054650;28;20111;-57
2023/12/31 04:56:26;;;;;;;3.20;1.13;;;;;;;11.41;84.75;99225.59;5071227;28;20388;-57
2023/12/31 04:58:54;;;;;;;3.50;0.75;;;;;;;11.32;85.00;99223.03;5055140;28;20057;-60
2023/12/31 05:01:22;;;;;;;3.13;1.10;;;;;;;11.03;85.30;99228.13;5037129;28;20100;-59
2023/12/31 05:03:50;;;;;;;4.32;0.90;;;;;;;11.21;85.87;99232.97;5049946;28;20049;-57
2023/12/31 05:06:18;;;;;;;4.18;0.93;;;;;;;11.28;86.22;99227.63;5044190;28;20535;-55
2023/12/31 05:08:45;;;;;;;1.92;0.85;;;;;;;11.49;83.98;99232.88;5057851;28;20064;-57
2023/12/31 05:11:14;;;;;;;4.25;0.70;;;;;;;11.42;83.19;99232.72;5040085;28;20053;-58
2023/12/31 05:13:42;;;;;;;2.97;0.82;;;;;;;11.40;82.16;99234.22;5029330;28;20665;-59
2023/12/31 05:16:13;;;;;;;3.90;0.80;;;;;;;11.44;82.71;99216.63;5037012;28;20669;-57
2023/12/31 05:18:43;;;;;;;2.65;0.90;;;;;;;11.38;83.34;99213.31;5034105;28;20551;-56
2023/12/31 05:21:12;;;;;;;2.50;1.00;;;;;;;11.18;82.59;99213.56;5077633;28;20048;-58
2023/12/31 05:23:39;;;;;;;4.57;0.90;;;;;;;11.12;84.39;99220.50;5071729;28;20112;-58
2023/12/31 05:26:07;;;;;;;5.18;1.00;;;;;;;11.32;84.09;99212.00;5043317;28;20044;-60
2023/12/31 05:28:36;;;;;;;4.40;0.93;;;;;;;11.41;83.96;99214.56;5054795;28;20514;-57
2023/12/31 05:31:03;;;;;;;7.15;1.55;;;;;;;11.35;82.38;99225.06;5035831;28;20064;-59
2023/12/31 05:33:31;;;;;;;4.40;0.88;;;;;;;11.16;80.43;99226.91;5033242;28;20486;-58
2023/12/31 05:35:58;;;;;;;3.80;0.70;;;;;;;11.53;81.57;99202.66;5033887;28;20053;-58
2023/12/31 05:38:26;;;;;;;6.45;0.93;;;;;;;11.36;79.40;99223.13;5034521;28;20080;-60
2023/12/31 05:40:53;;;;;;;3.83;0.73;;;;;;;11.41;79.65;99197.22;5032649;28;20049;-57
2023/12/31 05:43:20;;;;;;;4.63;0.60;;;;;;;11.26;79.43;99183.09;5049213;28;20045;-61
2023/12/31 05:45:48;;;;;;;9.38;0.95;;;;;;;11.09;79.68;99180.69;5052040;28;20516;-58
2023/12/31 05:48:15;;;;;;;8.60;1.10;;;;;;;11.21;79.21;99174.28;5053279;28;20083;-58
2023/12/31 05:50:42;;;;;;;7.88;1.17;;;;;;;11.10;78.22;99185.06;5035296;28;20059;-60
2023/12/31 05:53:10;;;;;;;3.40;1.00;;;;;;;11.64;80.61;99178.91;5052076;28;20049;-58
2023/12/31 05:55:37;;;;;;;5.63;1.00;;;;;;;11.17;79.05;99173.41;5035467;28;20079;-58
2023/12/31 05:58:04;;;;;;;6.88;1.00;;;;;;;10.96;79.32;99151.63;5054087;28;20057;-58
2023/12/31 06:00:32;;;;;;;7.35;1.13;;;;;;;10.92;79.81;99175.50;5053027;28;20053;-62
2023/12/31 06:02:59;;;;;;;5.32;0.90;;;;;;;11.05;80.64;99187.25;5054383;28;20052;-57
2023/12/31 06:05:26;;;;;;;5.13;0.80;;;;;;;11.17;80.42;99179.72;5052311;28;20052;-57
2023/12/31 06:07:53;;;;;;;5.13;0.60;;;;;;;11.11;78.56;99185.81;5051170;28;20056;-58
2023/12/31 06:10:21;;;;;;;5.68;0.75;;;;;;;10.99;78.91;99181.19;5071989;28;20052;-61
2023/12/31 06:12:49;;;;;;;5.93;0.65;;;;;;;10.97;79.01;99190.97;5072295;28;20064;-57
2023/12/31 06:15:16;;;;;;;5.03;0.75;;;;;;;11.00;79.41;99193.03;5073384;28;20036;-57
2023/12/31 06:17:43;;;;;;;3.40;1.08;;;;;;;11.10;78.77;99201.59;5072343;28;20056;-57
2023/12/31 06:20:11;;;;;;;4.22;0.80;;;;;;;10.99;78.21;99211.50;5052017;28;20064;-58
2023/12/31 06:22:38;;;;;;;3.38;0.85;;;;;;;10.88;78.29;99210.41;5052281;28;20057;-58
2023/12/31 06:25:06;;;;;;;5.53;0.73;;;;;;;10.79;77.80;99204.25;5050949;28;20073;-58
2023/12/31 06:27:33;;;;;;;2.47;0.70;;;;;;;11.12;79.04;99207.50;5054963;28;20417;-57
2023/12/31 06:30:00;;;;;;;4.43;0.70;;;;;;;11.23;76.82;99238.13;5050765;28;20056;-56
2023/12/31 06:32:28;;;;;;;2.65;0.45;;;;;;;11.50;75.98;99236.47;5049575;28;20075;-57
2023/12/31 06:34:55;;;;;;;4.20;0.55;;;;;;;11.31;75.21;99240.69;5052221;28;20131;-60
2023/12/31 06:37:22;;;;;;;3.10;0.55;;;;;;;11.34;75.44;99256.56;5052315;28;20511;-59
2023/12/31 06:39:51;;;;;;;4.40;0.70;;;;;;;11.28;73.20;99252.44;5053663;28;20419;-58
2023/12/31 06:42:21;;;;;;;2.03;0.40;;;;;;;11.72;76.00;99258.72;5051934;28;20048;-60
2023/12/31 06:44:49;;;;;;;2.67;0.50;;;;;;;11.42;74.04;99263.03;5051129;28;20045;-59
2023/12/31 06:47:16;;;;;;;3.08;0.57;;;;;;;11.46;74.96;99261.19;5051180;28;20063;-57
2023/12/31 06:49:44;;;;;;;4.63;0.75;;;;;;;11.38;75.22;99278.69;5050958;28;20041;-59
2023/12/31 06:52:13;;;;;;;4.80;0.50;;;;;;;11.44;75.12;99251.69;5048373;28;20053;-56
2023/12/31 06:54:41;;;;;;;2.78;0.60;;;;;;;11.21;73.96;99267.97;5066739;28;20052;-58
2023/12/31 06:57:09;;;;;;;4.65;0.80;;;;;;;11.58;76.27;99257.53;5051959;28;20771;-58
2023/12/31 06:59:36;;;;;;;4.38;0.75;;;;;;;11.79;72.74;99271.88;5051374;28;20071;-59
2023/12/31 07:02:04;;;;;;;3.63;0.65;;;;;;;11.47;74.31;99282.09;5033929;28;20055;-58
2023/12/31 07:04:31;;;;;;;5.05;0.52;;;;;;;11.37;73.31;99276.31;5051659;28;20044;-61
2023/12/31 07:06:59;;;;;;;2.63;0.60;;;;;;;11.58;76.62;99307.16;5056411;28;20044;-60
2023/12/31 07:09:28;;;;;;;6.20;0.90;;;;;;;11.68;76.00;99303.94;5050729;28;20049;-59
2023/12/31 07:11:55;;;;;;;6.88;0.80;;;;;;;11.46;74.46;99315.50;5049768;28;20056;-59
2023/12/31 07:14:24;;;;;;;5.35;0.70;;;;;;;11.07;74.32;99326.25;5050787;28;20052;-58
2023/12/31 07:16:51;;;;;;;5.50;1.02;;;;;;;11.28;75.82;99331.56;5052363;28;20049;-59
2023/12/31 07:19:20;;;;;;;4.38;0.75;;;;;;;11.43;77.07;99341.03;5048545;28;20045;-56
2023/12/31 07:21:47;;;;;;;5.80;0.68;;;;;;;11.48;73.79;99349.88;5047171;28;20048;-55
2023/12/31 07:24:15;;;;;;;6.68;0.90;;;;;;;11.32;76.54;99346.25;5045426;28;20041;-57
2023/12/31 07:26:42;;;;;;;6.35;0.73;;;;;;;11.08;76.86;99344.41;5045032;28;20052;-58
2023/12/31 07:29:09;;;;;;;6.07;1.40;;;;;;;11.00;76.41;99359.13;5033048;28;20056;-59
2023/12/31 07:31:38;;;;;;;5.18;0.93;;;;;;;11.11;76.97;99362.19;5047792;28;20053;-56
2023/12/31 07:34:06;;;;;;;4.53;0.93;;;;;;;10.83;76.42;99362.16;5049971;28;20519;-60
2023/12/31 07:36:34;;;;;;;6.20;1.10;;;;;;;10.80;77.16;99359.28;5031395;28;20056;-60
2023/12/31 07:39:03;;;;;;;8.75;1.15;;;;;;;10.68;77.09;99375.84;5047494;28;20044;-60
2023/12/31 07:41:31;;;;;;;6.63;1.48;;;;;;;10.77;77.94;99376.53;5046017;28;20056;-58
2023/12/31 07:43:59;;;;;;;5.72;1.05;;;;;;;10.49;76.83;99389.41;5050855;28;20517;-58
2023/12/31 07:46:27;;;;;;;7.35;1.00;;;;;;;10.58;77.51;99412.13;5048146;28;20072;-58
2023/12/31 07:48:56;;;;;;;6.03;1.20;;;;;;;10.55;77.22;99424.59;5051094;28;20045;-57
2023/12/31 07:51:24;;;;;;;6.75;1.40;;;;;;;10.52;77.81;99430.81;5050869;28;20496;-60
2023/12/31 07:53:52;;;;;;;10.07;1.10;;;;;;;10.71;78.18;99438.47;5051519;28;20041;-58
2023/12/31 07:56:19;;;;;;;6.20;1.13;;;;;;;10.31;76.62;99434.81;5048955;28;20040;-58
2023/12/31 07:58:47;;;;;;;5.65;0.88;;;;;;;10.28;78.58;99460.25;5048462;28;20051;-57
2023/12/31 08:01:14;;;;;;;4.57;1.00;;;;;;;10.23;77.42;99456.56;5043961;28;20045;-59
2023/12/31 08:03:41;;;;;;;5.07;1.10;;;;;;;10.13;78.79;99457.03;5047743;28;20404;-57
2023/12/31 08:06:09;;;;;;;5.47;1.20;;;;;;;10.35;78.51;99472.31;5050430;28;20041;-59
2023/12/31 08:08:37;;;;;;;4.95;1.15;;;;;;;10.20;78.10;99475.72;5046911;28;20056;-57
2023/12/31 08:11:04;;;;;;;8.55;0.93;;;;;;;10.17;79.06;99476.41;5049447;28;20048;-59
2023/12/31 08:13:31;;;;;;;9.82;1.40;;;;;;;10.18;78.04;99470.56;5048882;28;20380;-56
2023/12/31 08:16:00;;;;;;;7.97;1.30;;;;;;;10.22;78.30;99472.66;5032319;28;20044;-62
2023/12/31 08:18:27;;;;;;;7.30;1.48;;;;;;;10.20;78.28;99484.78;5043816;28;20057;-58
2023/12/31 08:20:55;;;;;;;11.20;1.77;;;;;;;10.46;78.75;99476.22;5047917;28;20056;-59
2023/12/31 08:23:22;;;;;;;7.97;1.20;;;;;;;10.52;78.48;99479.56;5049561;28;20057;-59
2023/12/31 08:25:49;;;;;;;8.98;1.30;;;;;;;10.45;77.83;99493.06;5048846;28;20048;-59
2023/12/31 08:28:17;;;;;;;7.82;1.52;;;;;;;10.36;77.85;99492.38;5048662;28;20057;-59
2023/12/31 08:30:44;;;;;;;9.23;1.38;;;;;;;10.29;76.63;99500.41;5051149;28;20064;-56
2023/12/31 08:33:12;;;;;;;8.18;1.52;;;;;;;10.27;77.93;99505.44;5041172;28;20056;-59
2023/12/31 08:35:40;;;;;;;6.15;1.40;;;;;;;10.23;78.17;99510.03;5048201;28;20559;-57
2023/12/31 08:38:07;;;;;;;9.68;1.10;;;;;;;10.25;78.23;99516.00;5049073;28;20041;-58
2023/12/31 08:40:34;;;;;;;11.40;1.80;;;;;;;10.40;77.31;99518.91;5050721;28;20044;-57
2023/12/31 08:43:03;;;;;;;12.13;1.67;;;;;;;10.13;77.56;99525.00;5050586;28;20047;-57
2023/12/31 08:45:32;;;;;;;9.50;1.40;;;;;;;10.44;80.54;99521.78;5026943;28;20656;-64
2023/12/31 08:48:00;;;;;;;9.18;2.33;;;;;;;10.40;77.12;99534.59;5048721;28;20044;-60
2023/12/31 08:50:29;;;;;;;7.80;1.70;;;;;;;10.70;78.37;99545.09;5048339;28;20056;-60
2023/12/31 08:52:56;;;;;;;12.68;2.40;;;;;;;10.65;76.62;99552.78;5053516;28;20049;-58
2023/12/31 08:55:23;;;;;;;12.57;1.48;;;;;;;10.47;76.76;99552.16;5048005;28;20041;-59
2023/12/31 08:57:51;;;;;;;10.32;2.15;;;;;;;10.64;79.81;99540.13;5050152;28;20060;-59
2023/12/31 09:00:18;;;;;;;11.02;1.83;;;;;;;10.42;76.81;99552.38;5049666;28;20472;-63
2023/12/31 09:02:47;;;;;;;12.25;2.15;;;;;;;10.40;76.93;99549.16;5054816;28;20060;-63
2023/12/31 09:05:15;;;;;;;16.35;2.28;;;;;;;10.33;77.10;99557.19;5051655;28;20033;-64
2023/12/31 09:07:42;;;;;;;8.25;2.35;;;;;;;10.19;78.16;99549.22;5055723;28;20472;-64
2023/12/31 09:10:10;;;;;;;15.57;2.50;;;;;;;10.37;78.10;99560.88;5036734;28;20056;-63
2023/12/31 09:12:37;;;;;;;12.40;2.55;;;;;;;10.45;79.27;99564.66;5051591;28;20563;-63
2023/12/31 09:15:06;;;;;;;15.63;2.35;;;;;;;10.70;78.86;99572.66;5052635;28;20049;-63
2023/12/31 09:17:35;;;;;;;14.43;2.08;;;;;;;10.71;77.24;99568.72;5052243;28;20057;-64
2023/12/31 09:20:05;;;;;;;16.67;2.50;;;;;;;10.64;76.66;99585.00;5052950;28;20046;-65
2023/12/31 09:22:33;;;;;;;14.43;2.40;;;;;;;10.68;76.90;99596.97;5054974;28;20049;-67
2023/12/31 09:25:02;;;;;;;11.90;2.70;;;;;;;10.65;76.98;99586.59;5053013;28;20440;-64
2023/12/31 09:27:29;;;;;;;14.98;2.65;;;;;;;10.91;77.25;99592.63;5051844;28;20045;-63
2023/12/31 09:29:56;;;;;;;14.63;2.65;;;;;;;10.73;76.35;99593.97;5053844;28;20049;-64
2023/12/31 09:32:24;;;;;;;18.27;2.33;;;;;;;10.83;76.36;99606.50;5053635;28;20051;-64
2023/12/31 09:34:51;;;;;;;10.70;2.22;;;;;;;10.86;78.73;99600.31;5053875;28;20048;-65
2023/12/31 09:37:21;;;;;;;12.15;2.58;;;;;;;11.16;75.87;99612.72;5051607;28;20049;-63
2023/12/31 09:39:48;;;;;;;;;;;;;;;10.93;74.95;99626.13;5052511;28;20048;-63
2023/12/31 09:42:20;;;;;;;16.55;2.42;;;;;;;10.78;74.09;99620.50;5052760;28;19987;-64
2023/12/31 09:44:49;;;;;;;15.50;4.05;;;;;;;11.11;76.26;99621.22;5050000;28;20218;-64
2023/12/31 09:47:16;;;;;;;14.50;2.42;;;;;;;11.19;75.62;99612.84;5033732;28;20049;-63
2023/12/31 09:49:44;;;;;;;18.80;3.25;;;;;;;11.00;74.44;99620.09;5054140;28;20057;-63
2023/12/31 09:52:11;;;;;;;20.52;4.15;;;;;;;11.15;74.07;99606.44;5054050;28;20508;-63
2023/12/31 09:54:42;;;;;;;12.60;2.25;;;;;;;11.29;76.52;99620.69;5053867;28;20053;-64
2023/12/31 09:57:11;;;;;;;24.20;4.15;;;;;;;11.07;74.00;99625.84;5051041;28;20432;-64
2023/12/31 09:59:44;;;;;;;21.08;3.30;;;;;;;11.21;73.54;99616.06;5035459;28;20071;-64
2023/12/31 10:02:21;;;;;;;23.73;3.15;;;;;;;11.22;73.69;99617.69;5051567;28;20041;-63
2023/12/31 10:04:51;;;;;;;21.27;3.30;;;;;;;11.32;73.61;99624.69;5050847;28;20052;-64
2023/12/31 10:07:20;;;;;;;18.52;3.40;;;;;;;11.21;72.42;99629.84;5065080;28;20056;-63
2023/12/31 10:09:49;;;;;;;17.40;3.25;;;;;;;11.20;73.02;99627.44;5034831;28;20139;-64
2023/12/31 10:12:16;;;;;;;18.08;3.92;;;;;;;11.38;73.14;99636.28;5067061;28;20056;-65
2023/12/31 10:14:44;;;;;;;15.68;3.40;;;;;;;11.76;75.32;99628.47;5048672;28;20706;-63
2023/12/31 10:17:13;;;;;;;21.33;3.80;;;;;;;11.58;71.94;99636.16;5052929;28;20045;-64
2023/12/31 10:19:41;;;;;;;20.33;3.33;;;;;;;11.70;72.55;99633.41;5063077;28;20056;-66
2023/12/31 10:22:08;;;;;;;21.75;3.42;;;;;;;11.93;72.08;99623.50;5058032;28;20048;-63
2023/12/31 10:24:35;;;;;;;18.33;3.90;;;;;;;12.01;71.28;99627.28;5053995;28;20068;-65
2023/12/31 10:27:05;;;;;;;19.58;3.78;;;;;;;12.16;72.46;99615.50;5049037;28;20432;-63
2023/12/31 10:29:32;;;;;;;18.10;3.35;;;;;;;12.26;70.90;99632.38;5040649;28;20041;-64
2023/12/31 10:32:04;;;;;;;26.60;3.85;;;;;;;12.08;68.00;99620.00;5035490;28;20057;-63
2023/12/31 10:34:36;;;;;;;18.98;3.63;;;;;;;12.16;69.70;99618.25;5043566;28;20054;-64
2023/12/31 10:37:05;;;;;;;29.73;4.40;;;;;;;12.24;69.53;99636.63;5047094;28;20045;-63
2023/12/31 10:39:39;;;;;;;23.10;3.50;;;;;;;12.35;69.28;99615.66;5042108;28;20041;-64
2023/12/31 10:42:14;;;;;;;24.27;4.38;;;;;;;12.33;70.22;99612.44;5052612;28;20056;-57
2023/12/31 10:44:42;;;;;;;25.33;4.47;;;;;;;12.47;68.74;99618.34;5067640;28;20413;-58
2023/12/31 10:47:10;;;;;;;22.90;3.80;;;;;;;12.21;68.61;99609.72;5035032;28;20044;-59
2023/12/31 10:49:43;;;;;;;32.15;4.32;;;;;;;12.56;68.20;99598.84;5051271;28;20415;-57
2023/12/31 10:52:14;;;;;;;22.88;3.85;;;;;;;12.37;67.28;99597.59;5052555;28;20064;-59
2023/12/31 10:54:46;;;;;;;24.30;3.83;;;;;;;12.08;69.21;99592.38;5032884;28;20057;-60
2023/12/31 10:57:15;;;;;;;25.13;5.28;;;;;;;12.42;70.21;99586.28;5049312;28;20045;-59
2023/12/31 10:59:43;;;;;;;23.10;3.80;;;;;;;12.36;68.65;99587.69;5044975;28;20053;-58
2023/12/31 11:02:20;;;;;;;23.58;4.90;;;;;;;12.26;68.10;99576.34;5051601;28;20052;-59
2023/12/31 11:04:49;;;;;;;30.80;4.32;;;;;;;12.15;67.38;99584.31;5049096;28;20056;-57
2023/12/31 11:07:18;;;;;;;31.10;4.82;;;;;;;12.15;65.87;99583.53;5049568;28;20060;-59
2023/12/31 11:09:48;;;;;;;26.15;4.28;;;;;;;12.41;66.69;99581.91;5048187;28;20057;-56
2023/12/31 11:12:16;;;;;;;20.02;3.35;;;;;;;12.51;65.15;99572.31;5049140;28;20659;-57
2023/12/31 11:14:58;;;;;;;26.25;4.60;;;;;;;12.66;64.67;99574.28;5048545;28;20059;-56
2023/12/31 11:17:45;;;;;;;26.75;4.50;;;;;;;12.38;64.08;99576.28;5048107;28;20041;-63
2023/12/31 11:20:28;;;;;;;28.17;4.40;;;;;;;12.21;63.85;99585.69;5045790;28;20064;-65
2023/12/31 11:23:47;;;;;;;25.50;4.38;;;;;;;12.09;63.52;99594.00;5048219;28;20516;-63
2023/12/31 11:26:15;;;;;;;25.67;3.97;;;;;;;13.84;62.24;99574.00;5049907;28;20052;-65
2023/12/31 11:28:48;;;;;;;24.13;3.90;;;;;;;13.29;57.47;99578.69;5046698;28;20052;-63
2023/12/31 11:31:16;;;;;;;24.92;4.30;;;;;;;12.89;58.42;99582.75;5049345;28;20415;-64
2023/12/31 11:33:44;;;;;;;25.10;4.25;;;;;;;12.85;57.69;99581.88;5048997;28;20287;-65
2023/12/31 11:36:16;;;;;;;22.55;4.55;;;;;;;12.77;58.07;99578.13;5050448;28;20377;-60